KMDH Weather | Aviation | SIU

Home
Southern Illinois University

CONTACT

SIU.EDU

Aviation - Weather

College of Applied Sciences and Arts

KMDH Weather

NOTICE: Although all weather products are taken from the National Weather Service, this data should be used only as a supplement to a formal weather briefing.

Last Updated: Sunday, June 25th, 2017, 7:09 pm
Information on this page is updated every 5 minutes.


METARS

KMDH 252352Z 31006KT 10SM FEW100 27/12 A3015 RMK AO2 SLP205 T02670122 10289

KMDH 252252Z 29005KT 10SM FEW100 28/11 A3014 RMK AO2 SLP203 T02780111

KMDH 252152Z 30009KT 10SM FEW095 27/10 A3015 RMK AO2 SLP208 T02720100

KMWA 252250Z 28010KT 20SM SCT095 28/08 A3015

KMWA 252150Z 28010KT 20SM SCT090 28/08 A3016

KCGI 252353Z AUTO 30008KT 10SM CLR 28/10 A3014 RMK AO2 SLP205 T02780100 10294

KCGI 252253Z AUTO 31010KT 10SM CLR 29/09 A3014 RMK AO2 SLP204 T02890089

KCGI 252153Z 29007KT 10SM CLR 29/09 A3015 RMK AO2 SLP207 T02890094

KSAR 252355Z AUTO 29007G14KT 10SM CLR 27/09 A3016 RMK AO2 T02700088 10285 20270

KSAR 252335Z AUTO 30008G15KT 10SM CLR 27/09 A3016 RMK AO2 T02720087

KSAR 252315Z AUTO 31009G16KT 10SM CLR 27/08 A3015 RMK AO2 T02720082

KSAR 252255Z AUTO 29010KT 10SM CLR 28/08 A3015 RMK AO2 T02760081

KSAR 252235Z AUTO 31009G17KT 10SM CLR 28/08 A3016 RMK AO2 T02770079

KSAR 252215Z AUTO 30011G17KT 10SM SCT090 28/08 A3017 RMK AO2 T02800078

KSAR 252155Z AUTO 29008KT 10SM CLR 28/08 A3017 RMK AO2 T02800080

KSAR 252135Z AUTO 27013G25KT 10SM CLR 28/07 A3017 RMK AO2 T02800073

KSAR 252115Z AUTO 29013G17KT 10SM CLR 28/08 A3017 RMK AO2 T02830075

KFAM 252356Z AUTO 30007KT 10SM CLR 26/11 A3019 RMK AO2 SLP215 T02610111 10283

KFAM 252256Z AUTO 30010G15KT 10SM FEW080 27/10 A3018 RMK AO2 SLP214 T02670100

KFAM 252156Z AUTO 31010G17KT 10SM FEW085 28/10 A3019 RMK AO2 SLP215 T02780100

KMVN 252356Z AUTO 27004KT 10SM CLR 26/09 A3014 RMK AO2 SLP204 T02610089 10272

KMVN 252256Z AUTO 28008G14KT 10SM CLR 27/08 A3014 RMK AO2 SLP203 T02670083

KMVN 252156Z AUTO VRB06G14KT 10SM CLR 27/09 A3015 RMK AO2 SLP206 T02720089

KHSB 252355Z AUTO 29008KT 10SM CLR 27/12 A3014 RMK AO2 T02670118 10286 20267

KCIR 252355Z AUTO 28007KT 10SM CLR 28/11 A3015 RMK AO2 T02810114 10291 20270

KPAH 252353Z 27004KT 10SM CLR 28/10 A3014 RMK AO2 SLP201 T02830100 10289 20278

KPOF 252353Z AUTO 20003KT 10SM CLR 28/14 A3015 RMK AO2 SLP205 T02780144 10300

KFAM 252356Z AUTO 30007KT 10SM CLR 26/11 A3019 RMK AO2 SLP215 T02610111 10283

KBLV 252358Z AUTO 31012KT 10SM CLR 26/08 A3017 RMK AO2 SLP217 T02550084 10284

KSUS 252354Z 31009KT 10SM FEW070 SCT250 26/10 A3016 RMK AO2 SLP208 T02560100

KCPS 252353Z 31017G22KT 10SM CLR 27/06 A3015 RMK AO2 SLP208 T02720056 10300

KSTL 252351Z 33012G20KT 10SM FEW070 FEW200 26/08 A3017 RMK AO2 SLP207 T02610083

KTBN 252358Z AUTO 31006KT 10SM CLR 24/12 A3022 RMK AO2 SLP230 T02400123 10277

KVIH 252353Z AUTO 28007KT 10SM CLR 23/11 A3021 RMK AO2 SLP223 T02330111 10278

KENL 252355Z AUTO 30012G21KT 10SM CLR 26/09 A3013 RMK AO2 T02630090 10282 20263

KMTO 252353Z AUTO 31012KT 10SM FEW075 23/09 A3014 RMK AO2 SLP202 T02280094 10250

KFWC 252355Z AUTO 00000KT 10SM CLR 26/09 A3013 RMK AO1 T02570085 10272 20257

KCUL 252355Z AUTO 30008KT 10SM CLR 26/11 A3013 RMK AO2 P0001 60001 T02580109

KEVV 252354Z 29008G16KT 10SM CLR 26/08 A3013 RMK AO2 SLP200 T02610078 10283

KOWB 252356Z 31010G20KT 10SM CLR 27/08 A3013 RMK AO2 SLP212 T02670083 10283

KEHR 252356Z AUTO 31007KT 10SM CLR 26/09 A3014 RMK AO2 SLP212 T02610089 10283

KCEY 252355Z AUTO 31004KT 10SM CLR 27/12 A3016 RMK AO1

KHOP 252358Z AUTO 28006KT 10SM CLR 26/11 A3015 RMK AO2 SLP207 T02640106 10275

KMKL 252353Z AUTO 33006KT 10SM CLR 28/10 A3017 RMK AO2 SLP211 T02830100 10300

KARG 252355Z AUTO 00000KT 10SM CLR 28/13 A3017 RMK AO1 10290 20270 402900170

KJBR 252353Z AUTO 01003KT 10SM CLR 29/11 A3017 RMK AO2 SLP213 T02940106 10306

KUNO 252353Z AUTO 32007KT 10SM CLR 27/10 A3022 RMK AO2 SLP221 T02720100 10300

KALN 252350Z 30010G17KT 10SM FEW200 24/10 A3017

KALN 252350Z 30010G17KT 10SM FEW200 24/10 A3017

KCOU 252354Z 29006KT 10SM CLR 23/10 A3021 RMK AO2 SLP224 T02280100 10267 20228

KSPI 252352Z 29009KT 10SM CLR 23/08 A3017 RMK AO2 SLP212 T02330083 10261 20233

KAJG 252355Z AUTO 31007G15KT 10SM CLR 25/09 A3012 RMK AO2 T02460085 10265 20246

KM30 252355Z AUTO 29003KT 10SM CLR 28/12 A3015 RMK AO2 T02780122 10292 20275

KDEC 252354Z 30014G18KT 10SM FEW070 22/06 A3015 RMK AO2 SLP208 T02220061 10244

KIJX 252355Z AUTO 29011G15KT 10SM SCT070 22/07 A3018 RMK AO2 T02200068 10243


TAFS

KEVV 252324Z 2600/2624 29006KT P6SM SKC

        FM260200 31003KT P6SM FEW070

        FM261700 27005KT P6SM SCT045

KCGI 252324Z 2600/2624 30006KT P6SM FEW080

        FM260400 36003KT P6SM BKN120

        FM261100 01004KT P6SM SCT050 BKN090

        PROB30 2611/2616 -SHRA

        FM261700 VRB03KT P6SM SCT060 BKN150

KPAH 252324Z 2600/2624 32003KT P6SM FEW080

        FM261200 01004KT P6SM SCT080 BKN120

        FM261800 VRB03KT P6SM SCT060 BKN150

KSPI 252340Z 2600/2624 29013G18KT P6SM FEW080

        FM260100 27004KT P6SM FEW070

        FM261400 28008KT P6SM SCT050

        FM261700 29009KT P6SM VCSH SCT050 BKN110

KSTL 252324Z 2600/2706 31012G18KT P6SM FEW250

        FM260100 VRB03KT P6SM FEW200

        FM261600 27006KT P6SM SCT150

        FM261800 27006KT P6SM VCSH SCT100

        FM262200 28006KT P6SM SCT200

KDEC 252340Z 2600/2624 29010G18KT P6SM SCT070

        FM260100 27006KT P6SM FEW070

        FM261400 28008KT P6SM SCT050

        FM261800 29010KT P6SM VCSH SCT050 BKN100

KOWB 252324Z 2600/2624 30006KT P6SM SKC

        FM260200 32003KT P6SM FEW070

        FM261300 29005KT P6SM FEW040 BKN150

        FM261900 28007KT P6SM SCT045

KSUS 252324Z 2600/2624 31012G18KT P6SM FEW250

        FM260100 VRB03KT P6SM SCT200

        FM261600 27006KT P6SM SCT150

        FM261800 27006KT P6SM VCSH SCT100

        FM262200 28006KT P6SM SCT200

TAF KBLV 260001Z 2600/2706 29006KT 9999 BKN120 QNH3013INS

        BECMG 2614/2615 23006KT 9999 FEW050 QNH3007INS

        BECMG 2623/2624 28006KT 9999 FEW050 SCT080 BKN110 QNH3006INS TX29/2621Z TN13/2610Z


Winds Aloft

VALID 260000Z FOR USE 2000-0300Z. TEMPS NEG ABV 24000

FT 3000 6000 9000 12000 18000 24000 30000 34000 39000
CGI30112915+123022+043138-012859-102861-22277238278047288454
EVV29202923+103042+033037-012969-132875-23279038279548268953
SPI30193019+063129+023035-022949-182980-27289342289649287850
STL30172819+082937+042935-022967-162975-25289239289649288653



Pilot Reports

CMI UA /OV 15 SE DEC/TM 1813/FL055/TP C182/TB LT CHOP/RM LT CHOP BETWEEN 055-075
1H2 UA /OV BIB220020/TM 1823/FL340/TP B739/TB LGT-MOD CAT/RM ZKC
ENL UA /OV ENL240030/TM 1824/FL300/TP MD83/TB SMOOTH/RM ZKC
1H2 UA /OV BIB/TM 1836/FL350/TP B737/TB LGT-MOD CHOP/RM ZKC FDC
1H2 UA /OV BIB/TM 1837/FL350/TP CRJ9/TB LGT-MOD CAT/RM ZKC FDC
HUF UA /OV TTH/TM 1859/FL340/TP B717/TB LGT MOD CHOP
1H2 UA /OV BIB/TM 1917/FL350/TP B737/TB LGT CAT/RM ZKC
MVN UA /OV MVN090014/TM 2005/FL075/TP DA40/TB CONT LGT-MOD/RM ZKC/FD1
1H2 UA /OV BIB/TM 2233/FL450/TP GLEX/TB LGT-MOD CHOP/RM ZKC/FD1
ARP UAL1967 3841N 09058W 2313 F390 TB LGT TURB RM B763 OV FTZ
DEC UA /OV AXC/TM 2316/FL370/TP B737/TB LGT CAT/RM ZKC/FD1
STL UA /OV STL020030/TM 2338/FL200/TP B737/TB MOD CHOP 160-190/RM ZKC/FD1



Area Forecast

000

FAUS43 KKCI 252210 AAA

FA3W

CHIC FA 252210 AMD

SYNOPSIS AND VFR CLDS/WX

SYNOPSIS VALID UNTIL 261300

CLDS/WX VALID UNTIL 260700...OTLK VALID 260700-261300

ND SD NE KS MN IA MO WI LM LS MI LH IL IN KY

.

SEE AIRMET SIERRA FOR IFR CONDS AND MTN OBSCN.

TS IMPLY SEV OR GTR TURB SEV ICE LLWS AND IFR CONDS.

NON MSL HGTS DENOTED BY AGL OR CIG.

.

SYNOPSIS...LOW OVR NERN LAKE HURON. TROF FM LOW WWD THRU N LH-UPR

MI-WRN LS. CDFNT FM LOW SSWWD THRU WRN OH-SRN IN-SRN IL-SRN MO.

HIGH PRES OVER ERN NEB. BY 13Z HIGH PRES OVR MUCH OF CHI FA

REGION. HIGH PRES RDG FM N CNTRL ND THRU CNTRL IA THRU ERN KY.

WEAK LOW OVR NRN LWR MI.

.

ND

W HLF...SCT070-100. 02Z SKC. OTLK...VFR.

E HLF...SCT060-100. 03Z SKC. OCNL SCT CI. OTLK...VFR.

.

SD

W HLF...SKC. OCNL SCT CI. OTLK...VFR.

NERN...BKN050 TOP 160. WDLY SCT -SHRA/-TSRA. CB TOP FL360. BECMG

0003 SKC. OCNL SCT CI. OTLK...VFR.

SERN...SCT080. 00Z BKN070 TOP 160. ISOL -TSRA. CB TOP FL360. 06Z

SCT100. OTLK...VFR.

.

NE

PNHDL...SCT080-100. OTLK...VFR.

N CNTRL...SKC. 02Z SCT100 BKN CI. OTLK...VFR.

S CNTRL...BKN060 OVC100 TOP FL240. WDLY SCT -SHRA. 22Z SCT100

SCT-BKN CI. OTLK...VFR...10Z MVFR CIG.

NERN...SKC. OCNL SCT CI. 06Z SCT-BKN070 TOP 150. OTLK...VFR.

SERN...SKC. OCNL SCT CI. OTLK...VFR.

.

KS

WRN 2/3...BKN060-070 OVC120 TOPS FL200. SCT -SHRA. ISOL -TSRA

MNLY SRN SXNS. CB TOPS FL400. OTLK...MVFR CIG.

ERN 1/3...

N HLF...BKN090 TOP FL210. WDLY SCT -SHRA. 00Z BKN-SCT090.

OTLK...VFR.

S HLF...BKN070 TOP FL180. 22Z BKN060 OVC120. WDLY SCT -SHRA. 06Z

OVC040. OTLK...MVFR CIG.

.

MN

NWRN...BKN060 TOP 100. ISOL -SHRA. 01Z SCT100. OTLK...VFR.

NERN...OVC030 TOP 130. SCT -SHRA. 01Z BKN060 TOP 160. OTLK...VFR.

SWRN...SCT060. WND NW G25KT. BECMG 0003 SCT-BKN080 TOP 160.

OTLK...VFR.

SERN...BKN040 TOP 120. WDLY SCT -SHRA. 02Z SCT050. OTLK...VFR.

.

IA

W HLF...SKC. OCNL SCT080. BECMG 0306 SCT-BKN060 TOP 160.

OTLK...MVFR CIG.

NERN...BKN050 TOP 120. 00Z SCT070. 06Z BKN060 TOP 140.

OTLK...VFR.

SERN...SKC. OCNL SCT050. TIL 00Z WND NW G25KT. OTLK...VFR.

.

MO

NWRN...SKC. 21Z SCT120. 00Z BKN120 TOP FL220. 06Z SCT120.

OTLK...VFR.

SWRN...SCT-BKN120 TOPS 160. BECMG 0204 BKN050 TOP FL220. WDLY SCT

-SHRA. OTLK...MVFR CIG SHRA BR.

NERN...SKC. OCNL SCT100. OTLK...VFR.

SERN...SKC. 03Z SCT100. 06Z BKN100 TOP FL220. OTLK...VFR.

.

WI

NWRN...BKN040-050 TOPS 080. ISOL -SHRA. OTLK...VFR.

NERN...BKN030 BKN080 TOPS FL180. SCT -SHRA. ISOL -TSRA. CB TOPS

FL370. 02Z BKN020-030 BKN080 TOPS 140. WDLY SCT -SHRA.

OTLK...MVFR CIG.

S HLF...BKN040 TOP 120. ISOL -SHRA. 02Z SCT050. OTLK...VFR.

.

LS UPR MI...UPDT

W HLF...BKN-OVC020-030 TOP FL220. OCNL VIS 3-5SM -RA BR. TIL 03Z

ISOL TO WDLY SCT -TSRA. CB TOPS FL370. OTLK...IFR CIG SHRA BR.

E HLF...BKN040 TOP FL180. WDLY SCT -SHRA/ISOL -TSRA. CB TOPS

FL370. 03Z OVC030 TOP FL180. OCNL VIS 3-5SM -SHRA BR. OTLK...IFR

CIG SHRA BR.

.

LM LWR MI LH

N HLF LM/NWRN LWR MI...BKN-OVC030 TOP 120. BECMG 0306 OVC030 TOP

FL220. WDLY SCT -SHRA. OTLK...IFR CIG SHRA BR.

S HLF LM/SWRN LWR MI...SCT050. BECMG 2023 BKN040 TOP 120. ISOL

-SHRA. 06Z SCT050. OTLK...VFR.

NERN LWR MI/LH...BKN030 TOP 120. ISOL -SHRA. BECMG 0406 OVC030

TOP FL200. WDLY SCT -SHRA. OTLK...IFR CIG BR.

SERN LWR MI...BKN050 TOP 120. WND W G25KT. 01Z BKN050.

OTLK...VFR.

.

IL

N 1/3...BKN040 TOP 090. BECMG 0406 SCT050. OTLK...VFR.

CNTRL 1/3...SCT050. 06Z SCT CI. OTLK...VFR.

SRN 1/3...SKC. 00Z SCT CI. OTLK...VFR.

.

IN

N 1/3...SCT-BKN060 TOP 100. 06Z SCT050. OTLK...VFR.

S 2/3...SKC. OCNL SCT CI. OTLK...VFR.

.

KY

SKC. OCNL SCT CI. OTLK...VFR.

....



Significant Weather

WAUS43 KKCI 252045 CHIT WA 252045 AIRMET TANGO UPDT 5 FOR TURB VALID UNTIL 260300 AIRMET TURB...IA MO WI LM MI IL IN KY FROM 20E MCW TO ORD TO 20WNW GIJ TO 40SW DXO TO FWA TO CVG TO HNN TO 40N HMV TO 40WSW LOZ TO 40SW PXV TO 50E FAM TO 40ESE COU TO 30WSW DSM TO 20E MCW MOD TURB BTN FL180 AND FL370. CONDS CONTG BYD 03Z ENDG 06-09Z. OTLK VALID 0300-0900Z...TURB KS OK TX BOUNDED BY 40S GLD-70WNW ICT-50S ICT-30N ADM-50SE SPS-20W ABI- 30WSW CDS-20W TXO-30ESE TBE-50W LBL-40S GLD MOD TURB BTN FL240 AND FL410. CONDS DVLPG 03-06Z. CONDS CONTG THRU 09Z.
WAUS44 KKCI 252045 DFWZ WA 252045 AIRMET ZULU UPDT 4 FOR ICE AND FRZLVL VALID UNTIL 260300 AIRMET ICE...OK AR NE KS IA MO IL KY FROM 50W OVR TO 20S OVR TO 30SW IRK TO 50ESE STL TO 60WSW PXV TO 60SW FAM TO 20NNE MLC TO 20S OKC TO 40S SLN TO 60E HLC TO 60SSW OBH TO 20S OBH TO 50W OVR MOD ICE BTN FRZLVL AND FL230. FRZLVL 110-140. CONDS CONTG BYD 03Z THRU 09Z. OTLK VALID 0300-0900Z...ICE OK AR TN KS MO IL KY BOUNDED BY 20E MCI-40S UIN-50ESE STL-60WSW PXV-60SSW PXV-DYR-20WSW LIT-40SSE MLC-30W MLC-20SSW OKC-30NE END-60E SLN-20E MCI MOD ICE BTN FRZLVL AND FL230. FRZLVL 110-140. CONDS CONTG THRU 09Z. FRZLVL...RANGING FROM 125-165 ACRS AREA 160 ALG 20WSW TXO-50NE MAF-70NE JCT-50E JCT-50SSE DLF
WAUS43 KKCI 252045 CHIZ WA 252045 AIRMET ZULU UPDT 3 FOR ICE AND FRZLVL VALID UNTIL 260300 AIRMET ICE...NE KS IA MO IL KY OK AR FROM 50W OVR TO 20S OVR TO 30SW IRK TO 50ESE STL TO 60WSW PXV TO 60SW FAM TO 20NNE MLC TO 20S OKC TO 40S SLN TO 60E HLC TO 60SSW OBH TO 20S OBH TO 50W OVR MOD ICE BTN FRZLVL AND FL230. FRZLVL 110-140. CONDS CONTG BYD 03Z THRU 09Z. OTLK VALID 0300-0900Z AREA 1...ICE SD NE MN IA BOUNDED BY 50ESE ABR-30NNW RWF-60SSE MSP-60SSW ODI-20WNW IOW-40SSE DSM-30NNW PWE-40W OBH-20NNE LBF-60NW ANW-60SSW ABR-50ESE ABR MOD ICE BTN 080 AND 160. CONDS CONTG THRU 09Z. AREA 2...ICE KS MO IL KY OK AR TN BOUNDED BY 20E MCI-40S UIN-50ESE STL-60WSW PXV-60SSW PXV-DYR-20WSW LIT-40SSE MLC-30W MLC-20SSW OKC-30NE END-60E SLN-20E MCI MOD ICE BTN FRZLVL AND FL230. FRZLVL 110-140. CONDS CONTG THRU 09Z. FRZLVL...RANGING FROM 060-150 ACRS AREA 080 ALG 60NW MOT-40WNW RWF-60SSW ODI-50SSE DLL-50NNW ASP- 40SSW YVV 120 ALG 70SW RAP-40ESE SLN-40ESE SGF-50NW DYR-50E LOZ-50WSW BKW